Time;durP1;ratioP1;P1;durP2;ratioP2;P2;SDS_P1;SDS_P2;PMS_P1;PMS_P2;Temp;Humidity;BMP_temperature;BMP_pressure;BME280_temperature;BME280_humidity;BME280_pressure;Samples;Min_cycle;Max_cycle;Signal;HPM_P1;HPM_P2
2023/06/06 00:01:14;;;;;;;;;5.50;4.00;;;;;14.54;50.45;100181.63;5094974;28;8945;-57
2023/06/06 00:03:44;;;;;;;;;5.50;5.50;;;;;14.47;50.35;100179.63;5095743;28;8850;-57
2023/06/06 00:06:14;;;;;;;;;9.00;7.00;;;;;14.43;50.41;100183.59;5095491;28;8949;-58
2023/06/06 00:08:42;;;;;;;;;6.50;6.50;;;;;14.37;50.45;100178.78;5095656;28;8806;-57
2023/06/06 00:11:10;;;;;;;;;5.00;5.00;;;;;14.34;51.32;100179.09;5095320;28;8850;-58
2023/06/06 00:13:40;;;;;;;;;9.00;9.00;;;;;14.32;50.45;100189.06;5095581;28;8843;-59
2023/06/06 00:16:08;;;;;;;;;8.75;8.00;;;;;14.29;50.79;100182.19;5095487;28;8854;-57
2023/06/06 00:18:36;;;;;;;;;7.00;7.00;;;;;14.26;51.17;100179.75;5094540;28;8830;-59
2023/06/06 00:21:04;;;;;;;;;0.00;0.00;;;;;14.25;50.51;100179.91;5095685;28;8854;-59
2023/06/06 00:23:32;;;;;;;;;8.50;8.00;;;;;14.22;50.78;100186.41;5095800;28;9484;-58
2023/06/06 00:26:00;;;;;;;;;6.75;6.75;;;;;14.20;50.83;100179.50;5095474;28;8843;-59
2023/06/06 00:28:28;;;;;;;;;8.00;8.00;;;;;14.17;51.33;100182.38;5094921;28;8836;-58
2023/06/06 00:30:55;;;;;;;;;7.00;6.75;;;;;14.13;51.17;100181.81;5095792;28;8830;-59
2023/06/06 00:33:23;;;;;;;;;6.50;6.50;;;;;14.10;51.56;100176.75;5099271;28;8865;-59
2023/06/06 00:35:51;;;;;;;;;7.00;7.00;;;;;14.07;51.59;100179.72;5099210;28;8832;-59
2023/06/06 00:38:18;;;;;;;;;9.00;9.00;;;;;14.04;51.56;100176.47;5098798;28;8826;-59
2023/06/06 00:40:46;;;;;;;;;9.00;8.00;;;;;14.01;51.58;100182.94;5099214;28;8837;-60
2023/06/06 00:43:14;;;;;;;;;9.50;8.50;;;;;13.97;51.58;100175.31;5100233;28;8972;-59
2023/06/06 00:45:41;;;;;;;;;9.25;9.25;;;;;13.93;52.17;100185.47;5098642;28;8853;-60
2023/06/06 00:48:09;;;;;;;;;6.50;6.50;;;;;13.92;51.74;100183.78;5098943;28;9444;-59
2023/06/06 00:50:38;;;;;;;;;6.00;6.00;;;;;13.90;51.95;100182.22;5099011;28;8814;-60
2023/06/06 00:53:06;;;;;;;;;6.50;6.50;;;;;13.87;51.83;100177.13;5098672;28;8834;-59
2023/06/06 00:55:34;;;;;;;;;6.00;6.00;;;;;13.84;51.70;100182.75;5098224;28;8818;-60
2023/06/06 00:58:01;;;;;;;;;9.00;7.50;;;;;13.80;52.00;100186.66;5098619;28;8848;-60
2023/06/06 01:00:32;;;;;;;;;6.50;6.50;;;;;13.77;52.06;100184.28;5098792;28;8822;-59
2023/06/06 01:03:00;;;;;;;;;8.50;8.50;;;;;13.73;51.89;100181.03;5097392;28;8842;-59
2023/06/06 01:05:28;;;;;;;;;8.50;8.50;;;;;13.69;52.00;100190.31;5096948;28;8814;-60
2023/06/06 01:07:56;;;;;;;;;6.75;6.50;;;;;13.65;52.01;100193.38;5097633;28;9500;-59
2023/06/06 01:10:23;;;;;;;;;8.50;7.00;;;;;13.61;52.32;100197.31;5097281;28;8818;-59
2023/06/06 01:12:52;;;;;;;;;9.00;7.50;;;;;13.57;52.25;100188.72;5097336;28;8948;-59
2023/06/06 01:15:20;;;;;;;;;7.00;6.50;;;;;13.53;52.24;100192.63;5097458;28;8837;-60
2023/06/06 01:17:49;;;;;;;;;7.00;7.00;;;;;13.51;52.52;100188.44;5097457;28;8814;-60
2023/06/06 01:20:16;;;;;;;;;7.00;7.00;;;;;13.50;52.33;100186.69;5097653;28;8841;-59
2023/06/06 01:22:44;;;;;;;;;6.25;6.25;;;;;13.49;52.49;100182.34;5097607;28;8826;-60
2023/06/06 01:25:19;;;;;;;;;8.00;6.75;;;;;13.47;53.11;100178.97;5098068;28;9018;-59
2023/06/06 01:27:47;;;;;;;;;7.00;6.50;;;;;13.46;52.70;100180.81;5087123;28;8814;-60
2023/06/06 01:30:14;;;;;;;;;6.25;6.25;;;;;13.44;52.75;100181.91;5098103;28;8822;-60
2023/06/06 01:32:42;;;;;;;;;8.50;8.00;;;;;13.41;52.81;100177.69;5098606;28;8848;-60
2023/06/06 01:35:10;;;;;;;;;6.00;6.00;;;;;13.37;53.05;100181.59;5097822;28;8821;-59
2023/06/06 01:37:37;;;;;;;;;6.75;6.75;;;;;13.35;53.14;100182.72;5097755;28;8821;-60
2023/06/06 01:40:06;;;;;;;;;3.25;3.25;;;;;13.34;53.05;100181.00;5098135;28;8822;-59
2023/06/06 01:42:38;;;;;;;;;9.25;9.00;;;;;13.32;52.60;100174.94;5097709;28;8810;-59
2023/06/06 01:45:06;;;;;;;;;9.50;9.25;;;;;13.34;52.80;100184.53;5097967;28;8832;-59
2023/06/06 01:47:34;;;;;;;;;8.00;7.50;;;;;13.35;52.65;100183.56;5097675;28;8818;-59
2023/06/06 01:50:03;;;;;;;;;9.00;7.75;;;;;13.36;53.09;100179.06;5097512;28;8810;-59
2023/06/06 01:52:31;;;;;;;;;5.50;5.50;;;;;13.37;53.12;100186.09;5097433;28;8825;-59
2023/06/06 01:54:58;;;;;;;;;9.00;6.75;;;;;13.37;52.70;100184.25;5097527;28;8826;-57
2023/06/06 01:57:27;;;;;;;;;7.00;7.00;;;;;13.39;53.13;100181.47;5097672;28;9504;-58
2023/06/06 01:59:54;;;;;;;;;9.25;8.00;;;;;13.39;53.00;100178.78;5097700;28;8822;-59
2023/06/06 02:02:23;;;;;;;;;7.00;6.50;;;;;13.36;53.30;100187.91;5097282;28;8834;-59
2023/06/06 02:04:50;;;;;;;;;8.50;7.00;;;;;13.30;53.12;100185.78;5097556;28;8830;-59
2023/06/06 02:07:18;;;;;;;;;9.50;9.00;;;;;13.23;53.32;100184.59;5097553;28;8810;-59
2023/06/06 02:09:46;;;;;;;;;9.00;9.00;;;;;13.15;53.73;100186.28;5097515;28;8818;-59
2023/06/06 02:12:13;;;;;;;;;11.50;11.00;;;;;13.08;53.50;100185.09;5097025;28;8814;-58
2023/06/06 02:14:42;;;;;;;;;9.00;7.50;;;;;13.01;53.94;100186.59;5097372;28;8838;-58
2023/06/06 02:17:09;;;;;;;;;8.75;8.75;;;;;12.94;53.86;100183.63;5097168;28;8851;-60
2023/06/06 02:19:37;;;;;;;;;6.50;6.50;;;;;12.91;54.12;100185.66;5097025;28;8841;-59
2023/06/06 02:22:05;;;;;;;;;7.00;6.50;;;;;12.85;54.13;100188.84;5096809;28;8876;-59
2023/06/06 02:24:33;;;;;;;;;6.75;6.75;;;;;12.81;54.00;100193.63;5097025;28;8825;-59
2023/06/06 02:27:02;;;;;;;;;9.00;9.00;;;;;12.76;54.10;100193.16;5097009;28;8830;-59
2023/06/06 02:29:29;;;;;;;;;10.25;10.25;;;;;12.71;54.24;100199.88;5096765;28;9491;-59
2023/06/06 02:31:57;;;;;;;;;7.50;6.25;;;;;12.67;54.31;100195.75;5096405;28;8826;-58
2023/06/06 02:34:25;;;;;;;;;9.25;7.00;;;;;12.62;54.60;100192.63;5096404;28;9527;-58
2023/06/06 02:36:53;;;;;;;;;8.00;7.00;;;;;12.59;54.79;100192.88;5096555;28;8818;-58
2023/06/06 02:39:21;;;;;;;;;11.00;11.00;;;;;12.58;54.79;100204.53;5096866;28;8833;-59
2023/06/06 02:41:50;;;;;;;;;11.75;10.50;;;;;12.56;54.43;100204.69;5096664;28;8840;-59
2023/06/06 02:44:19;;;;;;;;;8.50;8.00;;;;;12.55;55.08;100196.78;5098530;28;9514;-59
2023/06/06 02:46:47;;;;;;;;;10.00;9.75;;;;;12.54;55.03;100201.25;5096848;28;8838;-59
2023/06/06 02:49:15;;;;;;;;;10.00;9.00;;;;;12.54;54.90;100206.59;5096441;28;8967;-59
2023/06/06 02:51:42;;;;;;;;;9.00;7.00;;;;;12.55;55.18;100205.63;5096651;28;8814;-59
2023/06/06 02:54:10;;;;;;;;;6.50;6.00;;;;;12.57;55.10;100205.50;5096391;28;8802;-59
2023/06/06 02:56:38;;;;;;;;;9.25;9.00;;;;;12.57;55.18;100194.81;5096516;28;8844;-59
2023/06/06 02:59:07;;;;;;;;;4.50;4.50;;;;;12.55;54.43;100196.78;5096211;28;8832;-59
2023/06/06 03:01:35;;;;;;;;;9.75;9.25;;;;;12.51;55.00;100204.22;5096284;28;9569;-59
2023/06/06 03:04:03;;;;;;;;;9.75;9.75;;;;;12.46;54.70;100202.91;5096052;28;8827;-59
2023/06/06 03:06:30;;;;;;;;;9.75;9.25;;;;;12.41;55.16;100199.75;5096041;28;8906;-59
2023/06/06 03:08:58;;;;;;;;;6.00;6.00;;;;;12.37;55.14;100206.31;5096500;28;9518;-59
2023/06/06 03:11:26;;;;;;;;;8.50;7.00;;;;;12.34;55.26;100202.09;5095856;28;8853;-59
2023/06/06 03:13:53;;;;;;;;;10.00;8.75;;;;;12.33;55.38;100202.22;5095869;28;8814;-59
2023/06/06 03:16:25;;;;;;;;;12.50;11.00;;;;;12.32;55.37;100200.53;5096029;28;8964;-59
2023/06/06 03:18:54;;;;;;;;;9.50;8.00;;;;;12.30;55.74;100197.13;5096178;28;8818;-59
2023/06/06 03:21:21;;;;;;;;;10.00;9.00;;;;;12.30;55.84;100208.66;5096211;28;8818;-59
2023/06/06 03:23:50;;;;;;;;;9.75;9.00;;;;;12.29;55.59;100206.09;5095956;28;8798;-59
2023/06/06 03:26:19;;;;;;;;;8.50;8.00;;;;;12.30;55.54;100207.81;5095787;28;8854;-60
2023/06/06 03:28:47;;;;;;;;;8.50;7.75;;;;;12.28;55.68;100207.06;5095617;28;8854;-59
2023/06/06 03:31:15;;;;;;;;;9.00;7.00;;;;;12.28;55.32;100207.94;5095894;28;8822;-58
2023/06/06 03:33:43;;;;;;;;;9.00;8.00;;;;;12.28;56.09;100207.06;5095691;28;8923;-59
2023/06/06 03:36:11;;;;;;;;;7.00;6.00;;;;;12.27;55.93;100203.56;5095678;28;8818;-59
2023/06/06 03:38:38;;;;;;;;;9.50;8.50;;;;;12.25;55.56;100208.16;5095725;28;8842;-59
2023/06/06 03:41:06;;;;;;;;;9.50;8.50;;;;;12.26;55.62;100212.56;5095847;28;8885;-59
2023/06/06 03:43:34;;;;;;;;;12.00;8.75;;;;;12.26;55.66;100212.56;5096174;28;8817;-60
2023/06/06 03:46:02;;;;;;;;;9.00;8.00;;;;;12.26;55.85;100211.69;5095870;28;8825;-60
2023/06/06 03:48:30;;;;;;;;;10.00;7.00;;;;;12.25;55.79;100218.84;5095728;28;8826;-59
2023/06/06 03:50:58;;;;;;;;;9.50;9.00;;;;;12.26;56.00;100215.22;5095680;28;8846;-59
2023/06/06 03:53:26;;;;;;;;;6.00;4.50;;;;;12.26;55.56;100207.22;5095136;28;8818;-59
2023/06/06 03:55:53;;;;;;;;;4.50;4.00;;;;;12.28;55.71;100209.75;5096011;28;8822;-59
2023/06/06 03:58:24;;;;;;;;;7.00;7.00;;;;;12.30;55.55;100207.81;5095415;28;8826;-60
2023/06/06 04:00:52;;;;;;;;;8.00;8.00;;;;;12.34;55.61;100206.56;5095549;28;8814;-59
2023/06/06 04:03:20;;;;;;;;;9.50;8.00;;;;;12.37;55.60;100203.63;5095433;28;9510;-59
2023/06/06 04:05:50;;;;;;;;;7.00;6.00;;;;;12.41;55.94;100199.75;5095123;28;8806;-59
2023/06/06 04:08:18;;;;;;;;;9.00;8.00;;;;;12.47;55.35;100204.59;5099058;28;8917;-59
2023/06/06 04:10:46;;;;;;;;;9.00;7.50;;;;;12.51;55.40;100200.69;5099126;28;8848;-59
2023/06/06 04:13:13;;;;;;;;;9.00;7.25;;;;;12.55;55.20;100199.47;5099273;28;8826;-59
2023/06/06 04:15:41;;;;;;;;;6.00;6.00;;;;;12.60;55.43;100197.25;5099621;28;8841;-59
2023/06/06 04:18:09;;;;;;;;;8.00;7.00;;;;;12.62;55.11;100208.66;5099429;28;8965;-59
2023/06/06 04:20:37;;;;;;;;;10.33;9.67;;;;;12.65;55.41;100203.03;5099410;28;8876;-59
2023/06/06 04:23:05;;;;;;;;;8.00;8.00;;;;;12.70;55.18;100207.00;5098891;28;8842;-59
2023/06/06 04:25:32;;;;;;;;;9.75;9.00;;;;;12.75;55.15;100206.66;5099102;28;8852;-59
2023/06/06 04:28:01;;;;;;;;;5.50;5.50;;;;;12.79;55.21;100206.28;5099584;28;8830;-59
2023/06/06 04:30:32;;;;;;;;;6.00;5.50;;;;;12.86;54.77;100206.59;5099126;28;8829;-59
2023/06/06 04:33:00;;;;;;;;;9.75;9.00;;;;;12.92;54.91;100208.75;5098507;28;8838;-60
2023/06/06 04:35:28;;;;;;;;;6.50;6.50;;;;;12.99;54.86;100208.09;5097992;28;8802;-57
2023/06/06 04:37:57;;;;;;;;;6.00;6.00;;;;;13.08;54.56;100203.81;5098661;28;8822;-59
2023/06/06 04:40:32;;;;;;;;;8.00;6.75;;;;;13.16;54.77;100209.34;5098668;28;8834;-59
2023/06/06 04:43:23;;;;;;;;;10.50;10.00;;;;;13.29;54.36;100204.66;5099309;28;8839;-59
2023/06/06 04:45:53;;;;;;;;;10.00;9.75;;;;;13.40;54.12;100208.09;5098314;28;8807;-59
2023/06/06 04:48:25;;;;;;;;;9.00;8.25;;;;;13.54;54.39;100196.16;5098607;28;8853;-59
2023/06/06 04:50:56;;;;;;;;;9.50;8.50;;;;;13.68;53.72;100201.16;5098381;28;8830;-59
2023/06/06 04:53:25;;;;;;;;;12.00;10.50;;;;;13.82;53.94;100204.28;5098639;28;8814;-59
2023/06/06 04:55:53;;;;;;;;;9.00;6.00;;;;;13.94;53.84;100203.22;5098730;28;9623;-60
2023/06/06 04:58:21;;;;;;;;;10.00;9.25;;;;;14.05;53.86;100205.78;5098228;28;8834;-59
2023/06/06 05:00:49;;;;;;;;;13.50;12.50;;;;;14.17;54.25;100209.19;5098563;28;8874;-59
2023/06/06 05:03:18;;;;;;;;;10.50;10.00;;;;;14.27;54.27;100205.56;5097495;28;8826;-59
2023/06/06 05:05:46;;;;;;;;;9.50;9.00;;;;;14.38;54.08;100205.47;5097679;28;8838;-59
2023/06/06 05:08:14;;;;;;;;;13.00;12.50;;;;;14.49;54.10;100199.13;5097953;28;8879;-58
2023/06/06 05:10:42;;;;;;;;;9.50;9.00;;;;;14.62;53.82;100197.84;5097596;28;8905;-58
2023/06/06 05:13:10;;;;;;;;;10.00;9.75;;;;;14.73;53.77;100207.56;5097177;28;8844;-57
2023/06/06 05:15:38;;;;;;;;;12.25;11.00;;;;;14.82;54.15;100201.34;5097505;28;8841;-59
2023/06/06 05:18:06;;;;;;;;;8.50;8.00;;;;;14.92;54.05;100202.19;5096044;28;8918;-59
2023/06/06 05:20:34;;;;;;;;;10.50;9.00;;;;;15.02;53.76;100211.91;5097536;28;8845;-60
2023/06/06 05:23:02;;;;;;;;;11.00;9.50;;;;;15.14;53.33;100209.91;5095970;28;8824;-59
2023/06/06 05:25:30;;;;;;;;;12.00;9.00;;;;;15.24;53.31;100208.06;5097075;28;8914;-57
2023/06/06 05:27:57;;;;;;;;;10.50;10.00;;;;;15.35;53.16;100199.88;5096942;28;8856;-59
2023/06/06 05:30:26;;;;;;;;;9.50;9.25;;;;;15.43;53.39;100202.66;5095675;28;8967;-56
2023/06/06 05:32:53;;;;;;;;;10.00;9.50;;;;;15.50;53.61;100201.09;5095186;28;8830;-57
2023/06/06 05:35:21;;;;;;;;;9.00;9.00;;;;;15.57;53.98;100192.31;5095713;28;8834;-58
2023/06/06 05:37:49;;;;;;;;;9.00;9.00;;;;;15.66;53.51;100198.63;5094741;28;8845;-59
2023/06/06 05:40:17;;;;;;;;;10.00;10.00;;;;;15.75;53.34;100203.09;5094532;28;8837;-59
2023/06/06 05:42:45;;;;;;;;;9.00;8.00;;;;;15.84;54.00;100204.94;5096805;28;9949;-59
2023/06/06 05:45:12;;;;;;;;;9.75;9.75;;;;;15.92;53.03;100205.03;5094336;28;8916;-59
2023/06/06 05:47:40;;;;;;;;;11.75;10.50;;;;;16.00;53.12;100202.44;5095337;28;8830;-60
2023/06/06 05:50:08;;;;;;;;;12.50;11.75;;;;;16.05;53.42;100197.44;5095115;28;8838;-60
2023/06/06 05:52:36;;;;;;;;;10.00;9.00;;;;;16.10;53.49;100197.84;5095163;28;8826;-60
2023/06/06 05:55:04;;;;;;;;;13.00;12.25;;;;;16.15;53.19;100204.44;5095591;28;8830;-59
2023/06/06 05:57:32;;;;;;;;;10.00;10.00;;;;;16.22;53.21;100202.03;5095378;28;8826;-59
2023/06/06 06:00:00;;;;;;;;;10.75;9.75;;;;;16.30;52.95;100195.72;5094695;28;8833;-60
2023/06/06 06:02:30;;;;;;;;;12.50;11.00;;;;;16.39;52.97;100196.66;5095114;28;8856;-59
2023/06/06 06:04:58;;;;;;;;;15.25;13.00;;;;;16.47;52.58;100200.31;5095181;28;8833;-59
2023/06/06 06:07:28;;;;;;;;;8.00;6.50;;;;;16.54;52.78;100204.06;5093756;28;8810;-59
2023/06/06 06:09:55;;;;;;;;;13.50;11.50;;;;;16.62;52.56;100203.31;5094410;28;8849;-58
2023/06/06 06:12:23;;;;;;;;;12.75;12.75;;;;;16.67;52.89;100199.16;5094467;28;8844;-59
2023/06/06 06:14:51;;;;;;;;;11.25;9.50;;;;;16.74;52.36;100197.53;5094764;28;9724;-59
2023/06/06 06:17:20;;;;;;;;;10.00;10.00;;;;;16.82;52.91;100200.31;5094775;28;8853;-58
2023/06/06 06:19:50;;;;;;;;;12.00;10.00;;;;;16.91;52.79;100207.44;5094641;28;8841;-58
2023/06/06 06:22:18;;;;;;;;;11.25;11.00;;;;;17.01;52.53;100199.28;5094385;28;8837;-59
2023/06/06 06:24:45;;;;;;;;;15.00;13.50;;;;;17.12;52.16;100199.00;5094008;28;8895;-59
2023/06/06 06:27:13;;;;;;;;;12.50;10.50;;;;;17.22;52.33;100203.28;5095423;28;8914;-59
2023/06/06 06:29:41;;;;;;;;;11.50;10.00;;;;;17.27;52.46;100206.38;5094081;28;8830;-59
2023/06/06 06:32:09;;;;;;;;;9.25;7.00;;;;;17.32;52.62;100198.63;5094907;28;8856;-59
2023/06/06 06:34:37;;;;;;;;;12.50;11.00;;;;;17.38;52.46;100200.75;5095532;28;8810;-60
2023/06/06 06:37:07;;;;;;;;;12.75;12.00;;;;;17.48;52.66;100206.03;5095187;28;8841;-60
2023/06/06 06:39:34;;;;;;;;;16.00;13.00;;;;;17.60;51.73;100212.84;5094745;28;8846;-60
2023/06/06 06:42:03;;;;;;;;;8.40;8.40;;;;;17.66;51.76;100209.47;5093684;28;9034;-59
2023/06/06 06:44:31;;;;;;;;;7.00;6.25;;;;;17.69;52.14;100199.22;5095889;28;8838;-59
2023/06/06 06:46:59;;;;;;;;;13.75;12.25;;;;;17.74;52.25;100196.91;5095310;28;8842;-60
2023/06/06 06:49:26;;;;;;;;;18.25;15.00;;;;;17.83;52.32;100200.50;5095126;28;8838;-57
2023/06/06 06:51:54;;;;;;;;;15.00;14.00;;;;;17.88;51.72;100204.38;5094774;28;8857;-59
2023/06/06 06:54:24;;;;;;;;;15.20;12.40;;;;;17.97;52.37;100210.63;5095425;28;8810;-59
2023/06/06 06:56:53;;;;;;;;;9.00;8.50;;;;;18.04;51.64;100201.75;5095561;28;8922;-59
2023/06/06 06:59:21;;;;;;;;;15.00;12.50;;;;;18.12;52.14;100209.88;5094173;28;8976;-59
2023/06/06 07:01:49;;;;;;;;;16.50;13.00;;;;;18.17;52.10;100212.94;5093822;28;8907;-58
2023/06/06 07:04:18;;;;;;;;;12.80;12.00;;;;;18.20;51.51;100215.28;5093280;28;8826;-57
2023/06/06 07:06:46;;;;;;;;;15.00;10.00;;;;;18.27;51.82;100210.94;5094236;28;8952;-60
2023/06/06 07:09:18;;;;;;;;;11.20;11.20;;;;;18.35;51.73;100213.69;5094104;28;8825;-60
2023/06/06 07:11:47;;;;;;;;;16.60;16.20;;;;;18.45;51.22;100214.38;5094176;28;8834;-59
2023/06/06 07:14:15;;;;;;;;;15.00;13.00;;;;;18.56;51.34;100221.31;5094694;28;8838;-60
2023/06/06 07:16:43;;;;;;;;;13.60;12.60;;;;;18.66;51.35;100219.31;5094328;28;8834;-59
2023/06/06 07:19:11;;;;;;;;;12.80;12.00;;;;;18.72;51.59;100213.22;5094154;28;8834;-60
2023/06/06 07:21:40;;;;;;;;;14.00;14.00;;;;;18.79;51.62;100223.19;5094045;28;8890;-59
2023/06/06 07:24:07;;;;;;;;;9.00;7.00;;;;;18.90;51.33;100217.47;5093646;28;8853;-60
2023/06/06 07:26:36;;;;;;;;;12.20;10.00;;;;;18.97;51.31;100221.19;5094691;28;8829;-59
2023/06/06 07:29:04;;;;;;;;;7.20;6.40;;;;;19.06;51.16;100220.16;5094727;28;8851;-60
2023/06/06 07:31:33;;;;;;;;;13.80;11.20;;;;;19.12;51.36;100210.56;5094445;28;8845;-60
2023/06/06 07:34:02;;;;;;;;;13.60;13.20;;;;;19.21;50.62;100212.28;5094874;28;8834;-60
2023/06/06 07:36:30;;;;;;;;;12.40;9.00;;;;;19.26;51.09;100210.75;5094524;28;8854;-60
2023/06/06 07:38:58;;;;;;;;;15.20;13.80;;;;;19.33;51.45;100200.94;5094965;28;8918;-59
2023/06/06 07:41:26;;;;;;;;;14.80;13.40;;;;;19.38;51.44;100203.97;5093953;28;8845;-60
2023/06/06 07:43:54;;;;;;;;;13.20;11.40;;;;;19.48;51.08;100196.53;5094482;28;8911;-59
2023/06/06 07:46:24;;;;;;;;;13.00;11.60;;;;;19.56;51.01;100196.50;5094340;28;8967;-59
2023/06/06 07:48:52;;;;;;;;;15.60;13.00;;;;;19.64;50.61;100195.66;5094471;28;8860;-59
2023/06/06 07:51:21;;;;;;;;;11.40;11.40;;;;;19.73;51.05;100198.13;5094725;28;9580;-60
2023/06/06 07:53:49;;;;;;;;;10.40;9.20;;;;;19.81;50.88;100200.81;5094584;28;8833;-59
2023/06/06 07:56:18;;;;;;;;;14.00;12.20;;;;;19.88;51.01;100192.84;5094513;28;8826;-59
2023/06/06 07:58:51;;;;;;;;;15.20;12.20;;;;;19.97;50.95;100187.25;5093818;28;9516;-60
2023/06/06 08:01:21;;;;;;;;;14.40;13.80;;;;;20.05;50.56;100184.53;5093964;28;9514;-60
2023/06/06 08:03:50;;;;;;;;;16.80;13.80;;;;;20.13;50.49;100189.91;5093895;28;8850;-60
2023/06/06 08:06:18;;;;;;;;;3.20;2.80;;;;;20.20;50.60;100190.03;5094110;28;8940;-59
2023/06/06 08:08:48;;;;;;;;;13.60;12.60;;;;;20.27;50.71;100191.88;5093007;28;8853;-60
2023/06/06 08:11:16;;;;;;;;;11.60;10.60;;;;;20.34;50.71;100191.97;5093116;28;8842;-58
2023/06/06 08:13:44;;;;;;;;;10.00;8.80;;;;;20.46;50.45;100190.56;5094178;28;8834;-59
2023/06/06 08:16:12;;;;;;;;;11.40;11.20;;;;;20.54;50.55;100185.94;5094119;28;8868;-60
2023/06/06 08:18:40;;;;;;;;;15.00;13.60;;;;;20.65;50.14;100190.09;5093861;28;8845;-60
2023/06/06 08:21:09;;;;;;;;;16.80;14.20;;;;;20.74;50.37;100189.84;5094658;28;9733;-60
2023/06/06 08:23:38;;;;;;;;;7.80;7.60;;;;;20.84;50.09;100190.44;5094502;28;9519;-59
2023/06/06 08:26:06;;;;;;;;;14.80;13.60;;;;;20.97;49.46;100190.72;5094006;28;8830;-60
2023/06/06 08:28:34;;;;;;;;;17.00;15.00;;;;;21.09;50.00;100186.53;5094633;28;8826;-59
2023/06/06 08:31:03;;;;;;;;;15.40;15.00;;;;;21.19;49.85;100187.13;5094647;28;8821;-61
2023/06/06 08:33:32;;;;;;;;;11.60;11.00;;;;;21.28;49.34;100188.75;5094039;28;8993;-60
2023/06/06 08:36:00;;;;;;;;;15.80;15.00;;;;;21.35;49.41;100189.69;5093928;28;8830;-60
2023/06/06 08:38:33;;;;;;;;;12.40;12.00;;;;;21.45;49.87;100184.81;5094260;28;8898;-60
2023/06/06 08:41:01;;;;;;;;;14.40;14.00;;;;;21.53;49.15;100190.16;5094250;28;8854;-60
2023/06/06 08:43:29;;;;;;;;;13.80;13.00;;;;;21.58;49.69;100194.03;5094452;28;8911;-60
2023/06/06 08:45:58;;;;;;;;;9.40;9.00;;;;;21.63;49.32;100194.28;5094482;28;8856;-60
2023/06/06 08:48:28;;;;;;;;;14.80;14.40;;;;;21.68;49.51;100202.75;5094441;28;8846;-59
2023/06/06 08:50:56;;;;;;;;;15.20;14.20;;;;;21.78;49.54;100191.63;5093157;28;8865;-60
2023/06/06 08:53:24;;;;;;;;;12.20;11.00;;;;;21.86;49.41;100196.94;5095247;28;8838;-60
2023/06/06 08:55:52;;;;;;;;;18.80;15.80;;;;;21.95;49.07;100201.25;5096887;28;8834;-60
2023/06/06 08:58:21;;;;;;;;;16.40;14.40;;;;;21.99;48.65;100203.38;5096841;28;8833;-60
2023/06/06 09:00:49;;;;;;;;;12.00;12.00;;;;;22.11;49.14;100201.03;5096852;28;8838;-60
2023/06/06 09:03:17;;;;;;;;;10.60;9.40;;;;;22.24;48.50;100203.94;5095955;28;8892;-60
2023/06/06 09:05:51;;;;;;;;;12.20;11.40;;;;;22.31;48.61;100204.84;5097194;28;8838;-60
2023/06/06 09:08:23;;;;;;;;;15.20;13.80;;;;;22.45;49.01;100207.53;5097416;28;8849;-60
2023/06/06 09:10:52;;;;;;;;;12.20;12.20;;;;;22.54;48.52;100200.13;5097333;28;8842;-61
2023/06/06 09:13:20;;;;;;;;;15.40;12.80;;;;;22.68;48.74;100208.22;5097684;28;8826;-60
2023/06/06 09:15:47;;;;;;;;;18.20;12.60;;;;;22.82;48.61;100198.31;5097135;28;8838;-59
2023/06/06 09:18:16;;;;;;;;;16.40;13.40;;;;;22.92;47.98;100209.72;5097331;28;8865;-60
2023/06/06 09:20:44;;;;;;;;;13.20;12.20;;;;;23.04;48.32;100197.28;5097162;28;8841;-60
2023/06/06 09:23:12;;;;;;;;;13.00;12.00;;;;;23.11;47.83;100199.03;5097201;28;8860;-59
2023/06/06 09:25:40;;;;;;;;;11.80;11.60;;;;;23.21;48.24;100201.47;5096852;28;8834;-60
2023/06/06 09:28:08;;;;;;;;;14.00;13.60;;;;;23.34;48.22;100205.13;5096711;28;8911;-61
2023/06/06 09:30:36;;;;;;;;;13.00;12.80;;;;;23.46;47.38;100202.69;5096392;28;8834;-60
2023/06/06 09:33:04;;;;;;;;;12.80;11.60;;;;;23.60;47.25;100191.72;5096499;28;8905;-60
2023/06/06 09:35:33;;;;;;;;;16.40;14.00;;;;;23.74;47.52;100184.50;5096629;28;8841;-61
2023/06/06 09:38:01;;;;;;;;;12.80;12.80;;;;;23.88;47.07;100186.25;5096627;28;8902;-60
2023/06/06 09:40:30;;;;;;;;;12.60;12.00;;;;;23.99;47.31;100193.88;5095878;28;9555;-60
2023/06/06 09:42:58;;;;;;;;;14.60;13.80;;;;;24.14;46.84;100183.69;5096801;28;8848;-61
2023/06/06 09:45:26;;;;;;;;;11.40;10.40;;;;;24.30;46.22;100189.63;5095573;28;8830;-60
2023/06/06 09:47:55;;;;;;;;;14.20;12.60;;;;;24.39;45.81;100193.84;5095424;28;8911;-60
2023/06/06 09:50:23;;;;;;;;;10.80;10.00;;;;;24.41;46.46;100183.56;5095729;28;8846;-59
2023/06/06 09:52:52;;;;;;;;;14.20;13.80;;;;;24.37;46.28;100181.47;5096094;28;8842;-60
2023/06/06 09:55:20;;;;;;;;;18.00;13.80;;;;;24.17;47.03;100188.69;5096209;28;9499;-61
2023/06/06 09:57:48;;;;;;;;;15.40;15.00;;;;;24.00;47.33;100184.66;5095833;28;8826;-60
2023/06/06 10:00:18;;;;;;;;;12.20;11.60;;;;;23.89;47.58;100198.84;5096029;28;8969;-61
2023/06/06 10:02:47;;;;;;;;;14.00;13.00;;;;;23.77;47.93;100192.25;5095721;28;8992;-60
2023/06/06 10:05:16;;;;;;;;;16.20;14.20;;;;;23.77;48.16;100187.66;5095445;28;8830;-60
2023/06/06 10:07:44;;;;;;;;;14.40;11.60;;;;;24.00;47.28;100190.09;5096200;28;8822;-60
2023/06/06 10:10:13;;;;;;;;;18.80;15.80;;;;;24.27;47.32;100186.47;5096030;28;8854;-60
2023/06/06 10:12:41;;;;;;;;;16.40;14.40;;;;;24.79;46.23;100178.47;5096118;28;8860;-60
2023/06/06 10:15:11;;;;;;;;;15.60;13.60;;;;;25.51;45.09;100171.16;5095913;28;8825;-60
2023/06/06 10:17:39;;;;;;;;;15.00;14.00;;;;;26.23;44.02;100176.22;5095489;28;8829;-59
2023/06/06 10:20:09;;;;;;;;;11.60;11.00;;;;;26.82;42.61;100176.78;5095512;28;8838;-59
2023/06/06 10:22:37;;;;;;;;;11.80;11.60;;;;;27.21;42.32;100175.66;5095957;28;8826;-61
2023/06/06 10:25:06;;;;;;;;;13.40;13.20;;;;;27.08;42.99;100175.75;5096371;28;8837;-61
2023/06/06 10:27:34;;;;;;;;;14.20;13.20;;;;;26.97;43.03;100182.78;5096007;28;8973;-61
2023/06/06 10:30:02;;;;;;;;;14.60;12.80;;;;;26.89;43.28;100172.09;5095086;28;8845;-60
2023/06/06 10:32:30;;;;;;;;;15.80;14.20;;;;;27.16;42.98;100181.81;5095090;28;8900;-58
2023/06/06 10:34:58;;;;;;;;;8.40;8.00;;;;;27.71;41.90;100167.16;5095196;28;8838;-58
2023/06/06 10:37:29;;;;;;;;;12.60;12.00;;;;;28.35;41.44;100164.78;5094916;28;8842;-59
2023/06/06 10:39:57;;;;;;;;;14.00;12.80;;;;;28.97;40.67;100171.75;5094492;28;8981;-59
2023/06/06 10:42:26;;;;;;;;;12.20;11.20;;;;;29.42;40.16;100176.44;5095079;28;8880;-59
2023/06/06 10:44:54;;;;;;;;;13.80;12.40;;;;;29.68;39.39;100159.53;5094536;28;8860;-61
2023/06/06 10:47:23;;;;;;;;;11.20;10.40;;;;;30.07;39.20;100163.41;5093890;28;8900;-61
2023/06/06 10:49:52;;;;;;;;;10.60;10.00;;;;;30.43;38.63;100161.19;5094061;28;8872;-58
2023/06/06 10:52:20;;;;;;;;;11.00;10.80;;;;;30.71;38.61;100155.72;5095056;28;8846;-61
2023/06/06 10:54:48;;;;;;;;;12.60;11.80;;;;;30.91;37.66;100156.94;5095055;28;8835;-61
2023/06/06 10:57:16;;;;;;;;;11.60;11.20;;;;;31.16;37.71;100153.81;5095294;28;8837;-60
2023/06/06 10:59:45;;;;;;;;;13.40;12.40;;;;;31.34;37.41;100150.81;5095414;28;8868;-60
2023/06/06 11:02:14;;;;;;;;;9.80;9.80;;;;;31.52;37.36;100150.53;5095239;28;8980;-61
2023/06/06 11:04:42;;;;;;;;;12.80;12.80;;;;;31.67;37.28;100148.84;5094988;28;8829;-61
2023/06/06 11:07:09;;;;;;;;;13.60;12.40;;;;;31.83;37.37;100149.91;5094286;28;8852;-60
2023/06/06 11:09:38;;;;;;;;;12.60;11.20;;;;;32.00;36.95;100151.53;5093253;28;8842;-61
2023/06/06 11:12:06;;;;;;;;;12.40;10.40;;;;;32.05;36.55;100151.63;5093842;28;8830;-59
2023/06/06 11:14:34;;;;;;;;;9.20;9.00;;;;;32.18;36.24;100150.41;5093922;28;8841;-61
2023/06/06 11:17:02;;;;;;;;;14.60;12.40;;;;;32.31;36.37;100147.28;5093450;28;9625;-59
2023/06/06 11:19:30;;;;;;;;;13.20;13.00;;;;;32.45;36.00;100148.53;5093185;28;8850;-59
2023/06/06 11:21:59;;;;;;;;;11.40;11.00;;;;;32.60;36.17;100145.94;5094248;28;9627;-60
2023/06/06 11:24:27;;;;;;;;;10.80;10.20;;;;;32.78;35.55;100145.63;5094511;28;8826;-62
2023/06/06 11:26:55;;;;;;;;;13.40;11.60;;;;;32.69;36.26;100147.16;5094558;28;8865;-60
2023/06/06 11:29:23;;;;;;;;;10.40;10.40;;;;;32.49;36.12;100141.41;5093329;28;8861;-59